sensor_id;sensor_type;location;lat;lon;timestamp;pressure;altitude;pressure_sealevel;temperature;humidity
17855;BME280;9053;53.358;6.382;2023-04-06T00:00:23;101892.91;;;4.79;81.85
17855;BME280;9053;53.358;6.382;2023-04-06T00:02:58;101891.97;;;4.78;81.82
17855;BME280;9053;53.358;6.382;2023-04-06T00:05:28;101880.66;;;4.78;82.07
17855;BME280;9053;53.358;6.382;2023-04-06T00:07:58;101884.06;;;4.77;81.92
17855;BME280;9053;53.358;6.382;2023-04-06T00:10:28;101889.16;;;4.75;82.00
17855;BME280;9053;53.358;6.382;2023-04-06T00:12:58;101879.53;;;4.74;82.11
17855;BME280;9053;53.358;6.382;2023-04-06T00:15:28;101880.09;;;4.70;82.02
17855;BME280;9053;53.358;6.382;2023-04-06T00:18:02;101877.28;;;4.67;82.01
17855;BME280;9053;53.358;6.382;2023-04-06T00:20:32;101877.06;;;4.64;82.11
17855;BME280;9053;53.358;6.382;2023-04-06T00:23:02;101876.94;;;4.63;82.05
17855;BME280;9053;53.358;6.382;2023-04-06T00:25:32;101873.19;;;4.59;82.10
17855;BME280;9053;53.358;6.382;2023-04-06T00:28:02;101876.72;;;4.60;82.30
17855;BME280;9053;53.358;6.382;2023-04-06T00:30:32;101870.47;;;4.58;82.27
17855;BME280;9053;53.358;6.382;2023-04-06T00:33:05;101868.66;;;4.57;82.26
17855;BME280;9053;53.358;6.382;2023-04-06T00:35:36;101864.00;;;4.52;82.37
17855;BME280;9053;53.358;6.382;2023-04-06T00:38:06;101860.50;;;4.52;82.36
17855;BME280;9053;53.358;6.382;2023-04-06T00:40:36;101852.56;;;4.50;82.53
17855;BME280;9053;53.358;6.382;2023-04-06T00:43:07;101852.56;;;4.50;82.43
17855;BME280;9053;53.358;6.382;2023-04-06T00:45:37;101849.06;;;4.50;82.41
17855;BME280;9053;53.358;6.382;2023-04-06T00:48:10;101846.22;;;4.47;82.50
17855;BME280;9053;53.358;6.382;2023-04-06T00:50:40;101844.41;;;4.46;82.53
17855;BME280;9053;53.358;6.382;2023-04-06T00:53:10;101843.41;;;4.44;82.50
17855;BME280;9053;53.358;6.382;2023-04-06T00:55:40;101834.66;;;4.43;82.60
17855;BME280;9053;53.358;6.382;2023-04-06T00:58:10;101832.75;;;4.41;82.57
17855;BME280;9053;53.358;6.382;2023-04-06T01:00:40;101830.03;;;4.39;82.59
17855;BME280;9053;53.358;6.382;2023-04-06T01:03:14;101830.81;;;4.38;82.54
17855;BME280;9053;53.358;6.382;2023-04-06T01:05:46;101819.41;;;4.36;82.67
17855;BME280;9053;53.358;6.382;2023-04-06T01:08:16;101815.78;;;4.34;82.62
17855;BME280;9053;53.358;6.382;2023-04-06T01:10:46;101810.56;;;4.34;82.75
17855;BME280;9053;53.358;6.382;2023-04-06T01:13:15;101807.06;;;4.33;82.62
17855;BME280;9053;53.358;6.382;2023-04-06T01:15:46;101813.03;;;4.32;82.71
17855;BME280;9053;53.358;6.382;2023-04-06T01:18:19;101805.13;;;4.31;82.90
17855;BME280;9053;53.358;6.382;2023-04-06T01:20:54;101803.22;;;4.28;82.92
17855;BME280;9053;53.358;6.382;2023-04-06T01:23:30;101800.59;;;4.28;82.71
17855;BME280;9053;53.358;6.382;2023-04-06T01:26:00;101796.97;;;4.26;82.77
17855;BME280;9053;53.358;6.382;2023-04-06T01:28:30;101797.88;;;4.27;82.99
17855;BME280;9053;53.358;6.382;2023-04-06T01:31:08;101799.31;;;4.23;82.96
17855;BME280;9053;53.358;6.382;2023-04-06T01:33:39;101798.41;;;4.23;82.94
17855;BME280;9053;53.358;6.382;2023-04-06T01:36:09;101794.78;;;4.21;82.87
17855;BME280;9053;53.358;6.382;2023-04-06T01:38:41;101786.88;;;4.19;82.96
17855;BME280;9053;53.358;6.382;2023-04-06T01:41:11;101787.78;;;4.20;83.00
17855;BME280;9053;53.358;6.382;2023-04-06T01:43:41;101790.25;;;4.18;82.92
17855;BME280;9053;53.358;6.382;2023-04-06T01:46:11;101784.97;;;4.17;83.08
17855;BME280;9053;53.358;6.382;2023-04-06T01:48:41;101787.44;;;4.15;83.05
17855;BME280;9053;53.358;6.382;2023-04-06T01:51:12;101788.25;;;4.14;83.25
17855;BME280;9053;53.358;6.382;2023-04-06T01:53:44;101784.63;;;4.12;83.09
17855;BME280;9053;53.358;6.382;2023-04-06T01:56:15;101778.38;;;4.10;83.21
17855;BME280;9053;53.358;6.382;2023-04-06T01:58:44;101781.78;;;4.09;83.14
17855;BME280;9053;53.358;6.382;2023-04-06T02:01:14;101772.94;;;4.07;83.12
17855;BME280;9053;53.358;6.382;2023-04-06T02:03:47;101771.16;;;4.06;83.15
17855;BME280;9053;53.358;6.382;2023-04-06T02:06:18;101771.69;;;4.02;83.18
17855;BME280;9053;53.358;6.382;2023-04-06T02:08:50;101770.31;;;3.95;83.20
17855;BME280;9053;53.358;6.382;2023-04-06T02:11:20;101765.34;;;3.86;83.24
17855;BME280;9053;53.358;6.382;2023-04-06T02:13:50;101766.69;;;3.81;83.05
17855;BME280;9053;53.358;6.382;2023-04-06T02:16:20;101759.34;;;3.76;83.26
17855;BME280;9053;53.358;6.382;2023-04-06T02:18:50;101757.41;;;3.73;83.06
17855;BME280;9053;53.358;6.382;2023-04-06T02:21:20;101762.50;;;3.72;83.32
17855;BME280;9053;53.358;6.382;2023-04-06T02:23:52;101751.94;;;3.70;83.36
17855;BME280;9053;53.358;6.382;2023-04-06T02:26:24;101748.44;;;3.69;83.21
17855;BME280;9053;53.358;6.382;2023-04-06T02:28:54;101745.75;;;3.68;83.33
17855;BME280;9053;53.358;6.382;2023-04-06T02:31:23;101746.53;;;3.67;83.42
17855;BME280;9053;53.358;6.382;2023-04-06T02:33:53;101748.34;;;3.68;83.62
17855;BME280;9053;53.358;6.382;2023-04-06T02:36:23;101750.03;;;3.67;83.49
17855;BME280;9053;53.358;6.382;2023-04-06T02:38:56;101745.75;;;3.68;83.52
17855;BME280;9053;53.358;6.382;2023-04-06T02:41:25;101749.25;;;3.68;83.58
17855;BME280;9053;53.358;6.382;2023-04-06T02:43:55;101748.22;;;3.66;83.72
17855;BME280;9053;53.358;6.382;2023-04-06T02:46:25;101744.72;;;3.66;83.90
17855;BME280;9053;53.358;6.382;2023-04-06T02:48:55;101746.31;;;3.64;83.82
17855;BME280;9053;53.358;6.382;2023-04-06T02:51:27;101741.91;;;3.63;84.02
17855;BME280;9053;53.358;6.382;2023-04-06T02:53:59;101736.44;;;3.60;84.00
17855;BME280;9053;53.358;6.382;2023-04-06T02:56:29;101749.44;;;3.60;84.13
17855;BME280;9053;53.358;6.382;2023-04-06T02:58:59;101738.28;;;3.61;84.15
17855;BME280;9053;53.358;6.382;2023-04-06T03:01:30;101732.25;;;3.62;84.06
17855;BME280;9053;53.358;6.382;2023-04-06T03:04:00;101736.56;;;3.61;84.29
17855;BME280;9053;53.358;6.382;2023-04-06T03:06:30;101731.38;;;3.61;84.21
17855;BME280;9053;53.358;6.382;2023-04-06T03:09:03;101730.47;;;3.61;84.15
17855;BME280;9053;53.358;6.382;2023-04-06T03:11:33;101725.25;;;3.61;84.33
17855;BME280;9053;53.358;6.382;2023-04-06T03:14:03;101720.06;;;3.61;84.33
17855;BME280;9053;53.358;6.382;2023-04-06T03:16:33;101718.22;;;3.60;84.31
17855;BME280;9053;53.358;6.382;2023-04-06T03:19:03;101725.13;;;3.59;84.42
17855;BME280;9053;53.358;6.382;2023-04-06T03:21:33;101722.41;;;3.58;84.47
17855;BME280;9053;53.358;6.382;2023-04-06T03:24:09;101720.59;;;3.57;84.51
17855;BME280;9053;53.358;6.382;2023-04-06T03:26:39;101723.22;;;3.57;84.43
17855;BME280;9053;53.358;6.382;2023-04-06T03:29:09;101716.22;;;3.56;84.49
17855;BME280;9053;53.358;6.382;2023-04-06T03:31:39;101718.53;;;3.53;84.67
17855;BME280;9053;53.358;6.382;2023-04-06T03:34:10;101713.94;;;3.49;84.60
17855;BME280;9053;53.358;6.382;2023-04-06T03:36:40;101711.19;;;3.47;84.72
17855;BME280;9053;53.358;6.382;2023-04-06T03:39:13;101721.59;;;3.47;84.46
17855;BME280;9053;53.358;6.382;2023-04-06T03:41:43;101716.28;;;3.45;84.55
17855;BME280;9053;53.358;6.382;2023-04-06T03:44:12;101710.06;;;3.43;84.58
17855;BME280;9053;53.358;6.382;2023-04-06T03:46:43;101710.84;;;3.42;84.64
17855;BME280;9053;53.358;6.382;2023-04-06T03:49:13;101706.44;;;3.41;84.63
17855;BME280;9053;53.358;6.382;2023-04-06T03:51:43;101710.75;;;3.41;84.64
17855;BME280;9053;53.358;6.382;2023-04-06T03:54:15;101706.22;;;3.38;84.62
17855;BME280;9053;53.358;6.382;2023-04-06T03:56:45;101707.78;;;3.36;84.68
17855;BME280;9053;53.358;6.382;2023-04-06T03:59:15;101702.59;;;3.36;84.64
17855;BME280;9053;53.358;6.382;2023-04-06T04:01:45;101702.34;;;3.33;84.69
17855;BME280;9053;53.358;6.382;2023-04-06T04:04:15;101699.63;;;3.32;84.68
17855;BME280;9053;53.358;6.382;2023-04-06T04:06:45;101707.06;;;3.27;84.60
17855;BME280;9053;53.358;6.382;2023-04-06T04:09:17;101705.72;;;3.20;84.58
17855;BME280;9053;53.358;6.382;2023-04-06T04:11:47;101705.34;;;3.16;84.54
17855;BME280;9053;53.358;6.382;2023-04-06T04:14:17;101700.03;;;3.14;84.53
17855;BME280;9053;53.358;6.382;2023-04-06T04:16:49;101708.72;;;3.15;84.77
17855;BME280;9053;53.358;6.382;2023-04-06T04:19:19;101696.53;;;3.14;84.86
17855;BME280;9053;53.358;6.382;2023-04-06T04:21:48;101706.78;;;3.12;84.73
17855;BME280;9053;53.358;6.382;2023-04-06T04:24:21;101697.31;;;3.13;84.77
17855;BME280;9053;53.358;6.382;2023-04-06T04:26:51;101702.38;;;3.11;84.85
17855;BME280;9053;53.358;6.382;2023-04-06T04:29:21;101701.38;;;3.09;84.79
17855;BME280;9053;53.358;6.382;2023-04-06T04:31:51;101701.38;;;3.09;84.87
17855;BME280;9053;53.358;6.382;2023-04-06T04:34:21;101699.66;;;3.10;85.03
17855;BME280;9053;53.358;6.382;2023-04-06T04:36:52;101698.75;;;3.09;84.91
17855;BME280;9053;53.358;6.382;2023-04-06T04:39:27;101703.97;;;3.09;84.91
17855;BME280;9053;53.358;6.382;2023-04-06T04:41:57;101701.25;;;3.08;85.05
17855;BME280;9053;53.358;6.382;2023-04-06T04:44:27;101701.38;;;3.09;85.09
17855;BME280;9053;53.358;6.382;2023-04-06T04:46:57;101698.75;;;3.09;84.99
17855;BME280;9053;53.358;6.382;2023-04-06T04:49:27;101693.56;;;3.09;85.17
17855;BME280;9053;53.358;6.382;2023-04-06T04:51:57;101691.09;;;3.11;85.18
17855;BME280;9053;53.358;6.382;2023-04-06T04:54:29;101688.50;;;3.11;85.17
17855;BME280;9053;53.358;6.382;2023-04-06T04:56:59;101692.78;;;3.10;85.31
17855;BME280;9053;53.358;6.382;2023-04-06T04:59:29;101690.97;;;3.09;85.27
17855;BME280;9053;53.358;6.382;2023-04-06T05:02:00;101695.41;;;3.10;85.35
17855;BME280;9053;53.358;6.382;2023-04-06T05:04:30;101691.75;;;3.08;85.15
17855;BME280;9053;53.358;6.382;2023-04-06T05:07:04;101687.34;;;3.07;85.29
17855;BME280;9053;53.358;6.382;2023-04-06T05:09:36;101690.88;;;3.08;85.34
17855;BME280;9053;53.358;6.382;2023-04-06T05:12:07;101684.88;;;3.09;85.28
17855;BME280;9053;53.358;6.382;2023-04-06T05:14:38;101685.75;;;3.09;85.37
17855;BME280;9053;53.358;6.382;2023-04-06T05:17:08;101689.41;;;3.11;85.44
17855;BME280;9053;53.358;6.382;2023-04-06T05:19:38;101687.03;;;3.14;85.49
17855;BME280;9053;53.358;6.382;2023-04-06T05:22:08;101684.91;;;3.20;85.54
17855;BME280;9053;53.358;6.382;2023-04-06T05:24:40;101691.72;;;3.30;85.60
17855;BME280;9053;53.358;6.382;2023-04-06T05:27:10;101684.38;;;3.36;85.66
17855;BME280;9053;53.358;6.382;2023-04-06T05:29:40;101683.84;;;3.40;85.97
17855;BME280;9053;53.358;6.382;2023-04-06T05:32:10;101687.56;;;3.44;85.86
17855;BME280;9053;53.358;6.382;2023-04-06T05:34:40;101684.16;;;3.45;85.75
17855;BME280;9053;53.358;6.382;2023-04-06T05:37:10;101681.69;;;3.46;85.83
17855;BME280;9053;53.358;6.382;2023-04-06T05:39:42;101674.91;;;3.49;85.87
17855;BME280;9053;53.358;6.382;2023-04-06T05:42:12;101681.00;;;3.49;85.86
17855;BME280;9053;53.358;6.382;2023-04-06T05:44:42;101672.88;;;3.56;85.93
17855;BME280;9053;53.358;6.382;2023-04-06T05:47:12;101681.25;;;3.64;85.96
17855;BME280;9053;53.358;6.382;2023-04-06T05:49:42;101678.88;;;3.67;85.96
17855;BME280;9053;53.358;6.382;2023-04-06T05:52:12;101679.09;;;3.70;86.12
17855;BME280;9053;53.358;6.382;2023-04-06T05:54:45;101676.97;;;3.76;86.14
17855;BME280;9053;53.358;6.382;2023-04-06T05:57:15;101664.41;;;3.82;86.09
17855;BME280;9053;53.358;6.382;2023-04-06T05:59:46;101659.44;;;3.85;85.96
17855;BME280;9053;53.358;6.382;2023-04-06T06:02:16;101663.53;;;3.94;86.12
17855;BME280;9053;53.358;6.382;2023-04-06T06:04:46;101665.78;;;4.01;86.25
17855;BME280;9053;53.358;6.382;2023-04-06T06:07:16;101663.50;;;4.05;86.14
17855;BME280;9053;53.358;6.382;2023-04-06T06:09:49;101663.84;;;4.10;86.09
17855;BME280;9053;53.358;6.382;2023-04-06T06:12:18;101669.72;;;4.19;86.11
17855;BME280;9053;53.358;6.382;2023-04-06T06:14:49;101661.22;;;4.33;86.25
17855;BME280;9053;53.358;6.382;2023-04-06T06:17:19;101663.28;;;4.51;86.39
17855;BME280;9053;53.358;6.382;2023-04-06T06:19:49;101655.66;;;4.66;86.54
17855;BME280;9053;53.358;6.382;2023-04-06T06:22:19;101652.22;;;4.78;86.63
17855;BME280;9053;53.358;6.382;2023-04-06T06:24:53;101658.28;;;4.91;86.67
17855;BME280;9053;53.358;6.382;2023-04-06T06:27:23;101664.16;;;5.00;86.66
17855;BME280;9053;53.358;6.382;2023-04-06T06:29:53;101657.75;;;5.08;86.51
17855;BME280;9053;53.358;6.382;2023-04-06T06:32:24;101653.06;;;5.16;86.46
17855;BME280;9053;53.358;6.382;2023-04-06T06:34:54;101655.28;;;5.23;86.55
17855;BME280;9053;53.358;6.382;2023-04-06T06:37:24;101650.53;;;5.29;86.45
17855;BME280;9053;53.358;6.382;2023-04-06T06:39:59;101646.72;;;5.37;86.29
17855;BME280;9053;53.358;6.382;2023-04-06T06:42:29;101658.44;;;5.44;86.39
17855;BME280;9053;53.358;6.382;2023-04-06T06:44:59;101650.44;;;5.54;86.30
17855;BME280;9053;53.358;6.382;2023-04-06T06:47:29;101652.38;;;5.70;86.51
17855;BME280;9053;53.358;6.382;2023-04-06T06:50:01;101657.00;;;5.88;86.42
17855;BME280;9053;53.358;6.382;2023-04-06T06:52:33;101656.63;;;6.08;86.48
17855;BME280;9053;53.358;6.382;2023-04-06T06:55:07;101666.53;;;6.27;86.47
17855;BME280;9053;53.358;6.382;2023-04-06T06:57:37;101654.84;;;6.48;86.52
17855;BME280;9053;53.358;6.382;2023-04-06T07:00:10;101646.66;;;6.70;86.62
17855;BME280;9053;53.358;6.382;2023-04-06T07:02:41;101652.31;;;6.91;86.60
17855;BME280;9053;53.358;6.382;2023-04-06T07:05:11;101651.09;;;7.14;86.42
17855;BME280;9053;53.358;6.382;2023-04-06T07:07:53;101646.94;;;7.33;86.34
17855;BME280;9053;53.358;6.382;2023-04-06T07:10:28;101650.56;;;7.50;86.10
17855;BME280;9053;53.358;6.382;2023-04-06T07:12:58;101640.09;;;7.65;85.77
17855;BME280;9053;53.358;6.382;2023-04-06T07:15:27;101636.81;;;7.84;85.56
17855;BME280;9053;53.358;6.382;2023-04-06T07:17:57;101639.66;;;8.03;85.25
17855;BME280;9053;53.358;6.382;2023-04-06T07:20:31;101638.28;;;8.24;85.18
17855;BME280;9053;53.358;6.382;2023-04-06T07:23:01;101637.75;;;8.47;84.88
17855;BME280;9053;53.358;6.382;2023-04-06T07:25:34;101627.22;;;8.61;84.40
17855;BME280;9053;53.358;6.382;2023-04-06T07:28:04;101621.88;;;8.76;84.12
17855;BME280;9053;53.358;6.382;2023-04-06T07:30:34;101616.56;;;8.91;83.89
17855;BME280;9053;53.358;6.382;2023-04-06T07:33:04;101621.28;;;9.15;83.46
17855;BME280;9053;53.358;6.382;2023-04-06T07:35:37;101614.53;;;9.36;83.15
17855;BME280;9053;53.358;6.382;2023-04-06T07:38:07;101606.66;;;9.54;82.81
17855;BME280;9053;53.358;6.382;2023-04-06T07:40:40;101606.44;;;9.67;82.41
17855;BME280;9053;53.358;6.382;2023-04-06T07:43:09;101603.06;;;9.70;81.88
17855;BME280;9053;53.358;6.382;2023-04-06T07:45:42;101603.41;;;9.76;81.40
17855;BME280;9053;53.358;6.382;2023-04-06T07:48:12;101595.22;;;9.88;80.94
17855;BME280;9053;53.358;6.382;2023-04-06T07:50:42;101597.53;;;10.00;80.40
17855;BME280;9053;53.358;6.382;2023-04-06T07:53:12;101590.91;;;10.08;80.01
17855;BME280;9053;53.358;6.382;2023-04-06T07:55:45;101593.31;;;10.21;79.61
17855;BME280;9053;53.358;6.382;2023-04-06T07:58:15;101587.28;;;10.42;79.28
17855;BME280;9053;53.358;6.382;2023-04-06T08:00:47;101589.63;;;10.55;78.79
17855;BME280;9053;53.358;6.382;2023-04-06T08:03:17;101600.16;;;10.74;78.42
17855;BME280;9053;53.358;6.382;2023-04-06T08:05:49;101594.75;;;10.91;77.95
17855;BME280;9053;53.358;6.382;2023-04-06T08:08:19;101598.88;;;11.05;77.65
17855;BME280;9053;53.358;6.382;2023-04-06T08:10:52;101598.59;;;11.18;77.11
17855;BME280;9053;53.358;6.382;2023-04-06T08:13:22;101591.09;;;11.27;76.74
17855;BME280;9053;53.358;6.382;2023-04-06T08:15:53;101592.59;;;11.42;76.16
17855;BME280;9053;53.358;6.382;2023-04-06T08:18:24;101588.66;;;11.53;75.72
17855;BME280;9053;53.358;6.382;2023-04-06T08:20:54;101590.94;;;11.66;75.42
17855;BME280;9053;53.358;6.382;2023-04-06T08:23:24;101597.69;;;11.81;74.84
17855;BME280;9053;53.358;6.382;2023-04-06T08:25:57;101593.47;;;11.84;74.48
17855;BME280;9053;53.358;6.382;2023-04-06T08:28:26;101588.53;;;11.92;73.83
17855;BME280;9053;53.358;6.382;2023-04-06T08:30:56;101591.72;;;12.06;73.47
17855;BME280;9053;53.358;6.382;2023-04-06T08:33:26;101585.19;;;12.19;73.08
17855;BME280;9053;53.358;6.382;2023-04-06T08:35:56;101581.25;;;12.30;72.78
17855;BME280;9053;53.358;6.382;2023-04-06T08:38:29;101573.06;;;12.46;72.55
17855;BME280;9053;53.358;6.382;2023-04-06T08:41:06;101570.16;;;12.63;72.09
17855;BME280;9053;53.358;6.382;2023-04-06T08:43:42;101568.19;;;12.81;72.00
17855;BME280;9053;53.358;6.382;2023-04-06T08:46:13;101570.25;;;12.90;71.71
17855;BME280;9053;53.358;6.382;2023-04-06T08:48:45;101568.56;;;12.92;71.18
17855;BME280;9053;53.358;6.382;2023-04-06T08:51:17;101581.88;;;12.95;70.70
17855;BME280;9053;53.358;6.382;2023-04-06T08:53:49;101561.16;;;13.06;70.38
17855;BME280;9053;53.358;6.382;2023-04-06T08:56:24;101569.53;;;13.19;70.10
17855;BME280;9053;53.358;6.382;2023-04-06T08:58:56;101566.63;;;13.36;69.93
17855;BME280;9053;53.358;6.382;2023-04-06T09:01:28;101559.00;;;13.45;69.74
17855;BME280;9053;53.358;6.382;2023-04-06T09:04:01;101554.72;;;13.49;69.13
17855;BME280;9053;53.358;6.382;2023-04-06T09:06:35;101553.94;;;13.53;68.69
17855;BME280;9053;53.358;6.382;2023-04-06T09:09:05;101553.38;;;13.61;68.20
17855;BME280;9053;53.358;6.382;2023-04-06T09:11:48;101546.25;;;13.59;67.91
17855;BME280;9053;53.358;6.382;2023-04-06T09:14:33;101552.28;;;13.55;67.36
17855;BME280;9053;53.358;6.382;2023-04-06T09:17:04;101544.09;;;13.47;67.08
17855;BME280;9053;53.358;6.382;2023-04-06T09:19:45;101549.13;;;13.39;66.67
17855;BME280;9053;53.358;6.382;2023-04-06T09:22:18;101540.84;;;13.29;66.23
17855;BME280;9053;53.358;6.382;2023-04-06T09:24:51;101544.25;;;13.26;65.94
17855;BME280;9053;53.358;6.382;2023-04-06T09:27:33;101535.16;;;13.18;65.66
17855;BME280;9053;53.358;6.382;2023-04-06T09:30:05;101531.47;;;13.13;65.40
17855;BME280;9053;53.358;6.382;2023-04-06T09:32:47;101532.81;;;13.02;65.16
17855;BME280;9053;53.358;6.382;2023-04-06T09:35:17;101530.72;;;12.91;64.95
17855;BME280;9053;53.358;6.382;2023-04-06T09:37:50;101531.44;;;12.87;64.92
17855;BME280;9053;53.358;6.382;2023-04-06T09:40:20;101533.16;;;12.85;64.93
17855;BME280;9053;53.358;6.382;2023-04-06T09:42:53;101519.00;;;12.83;64.92
17855;BME280;9053;53.358;6.382;2023-04-06T09:45:26;101526.84;;;12.82;64.57
17855;BME280;9053;53.358;6.382;2023-04-06T09:47:59;101527.69;;;12.81;64.43
17855;BME280;9053;53.358;6.382;2023-04-06T09:50:30;101520.75;;;12.83;64.47
17855;BME280;9053;53.358;6.382;2023-04-06T09:53:01;101518.13;;;12.84;64.26
17855;BME280;9053;53.358;6.382;2023-04-06T09:55:35;101505.81;;;12.85;64.29
17855;BME280;9053;53.358;6.382;2023-04-06T09:58:13;101511.06;;;12.83;64.30
17855;BME280;9053;53.358;6.382;2023-04-06T10:00:49;101496.13;;;12.84;64.25
17855;BME280;9053;53.358;6.382;2023-04-06T10:03:30;101505.00;;;12.86;64.26
17855;BME280;9053;53.358;6.382;2023-04-06T10:06:08;101498.88;;;12.87;64.11
17855;BME280;9053;53.358;6.382;2023-04-06T10:08:45;101498.06;;;12.89;63.87
17855;BME280;9053;53.358;6.382;2023-04-06T10:11:17;101498.31;;;12.95;64.04
17855;BME280;9053;53.358;6.382;2023-04-06T10:13:50;101494.97;;;13.01;64.00
17855;BME280;9053;53.358;6.382;2023-04-06T10:16:21;101503.00;;;13.04;64.02
17855;BME280;9053;53.358;6.382;2023-04-06T10:18:55;101490.59;;;13.02;64.21
17855;BME280;9053;53.358;6.382;2023-04-06T10:21:27;101493.03;;;12.95;63.82
17855;BME280;9053;53.358;6.382;2023-04-06T10:23:59;101499.19;;;12.96;63.70
17855;BME280;9053;53.358;6.382;2023-04-06T10:26:29;101495.69;;;12.97;63.72
17855;BME280;9053;53.358;6.382;2023-04-06T10:29:04;101496.56;;;12.96;63.53
17855;BME280;9053;53.358;6.382;2023-04-06T10:31:39;101492.16;;;12.96;63.28
17855;BME280;9053;53.358;6.382;2023-04-06T10:34:11;101486.88;;;12.96;63.23
17855;BME280;9053;53.358;6.382;2023-04-06T10:36:41;101491.38;;;12.99;63.21
17855;BME280;9053;53.358;6.382;2023-04-06T10:39:11;101493.28;;;13.03;63.01
17855;BME280;9053;53.358;6.382;2023-04-06T10:41:42;101484.50;;;13.04;63.19
17855;BME280;9053;53.358;6.382;2023-04-06T10:44:20;101491.78;;;13.11;63.06
17855;BME280;9053;53.358;6.382;2023-04-06T10:46:55;101483.16;;;13.17;63.21
17855;BME280;9053;53.358;6.382;2023-04-06T10:49:29;101479.81;;;13.23;63.34
17855;BME280;9053;53.358;6.382;2023-04-06T10:51:59;101482.66;;;13.27;63.31
17855;BME280;9053;53.358;6.382;2023-04-06T10:54:29;101477.59;;;13.33;63.15
17855;BME280;9053;53.358;6.382;2023-04-06T10:57:00;101470.88;;;13.43;63.30
17855;BME280;9053;53.358;6.382;2023-04-06T10:59:36;101476.44;;;13.52;63.41
17855;BME280;9053;53.358;6.382;2023-04-06T11:02:06;101460.81;;;13.60;63.57
17855;BME280;9053;53.358;6.382;2023-04-06T11:04:36;101467.19;;;13.67;63.55
17855;BME280;9053;53.358;6.382;2023-04-06T11:07:07;101465.63;;;13.73;63.35
17855;BME280;9053;53.358;6.382;2023-04-06T11:09:37;101468.25;;;13.73;62.97
17855;BME280;9053;53.358;6.382;2023-04-06T11:12:08;101461.41;;;13.78;62.93
17855;BME280;9053;53.358;6.382;2023-04-06T11:14:40;101457.97;;;13.82;62.78
17855;BME280;9053;53.358;6.382;2023-04-06T11:17:10;101463.47;;;13.89;62.79
17855;BME280;9053;53.358;6.382;2023-04-06T11:19:40;101462.66;;;13.91;62.62
17855;BME280;9053;53.358;6.382;2023-04-06T11:22:10;101449.47;;;13.93;62.55
17855;BME280;9053;53.358;6.382;2023-04-06T11:24:42;101454.84;;;13.96;62.61
17855;BME280;9053;53.358;6.382;2023-04-06T11:27:12;101455.03;;;14.02;62.46
17855;BME280;9053;53.358;6.382;2023-04-06T11:29:49;101445.41;;;14.04;62.29
17855;BME280;9053;53.358;6.382;2023-04-06T11:32:23;101441.97;;;14.08;62.33
17855;BME280;9053;53.358;6.382;2023-04-06T11:34:53;101447.47;;;14.14;62.13
17855;BME280;9053;53.358;6.382;2023-04-06T11:37:26;101449.31;;;14.17;62.09
17855;BME280;9053;53.358;6.382;2023-04-06T11:39:56;101445.78;;;14.16;61.79
17855;BME280;9053;53.358;6.382;2023-04-06T11:42:29;101443.22;;;14.21;61.70
17855;BME280;9053;53.358;6.382;2023-04-06T11:45:06;101455.66;;;14.23;61.75
17855;BME280;9053;53.358;6.382;2023-04-06T11:47:37;101441.59;;;14.24;61.68
17855;BME280;9053;53.358;6.382;2023-04-06T11:50:11;101432.78;;;14.25;61.50
17855;BME280;9053;53.358;6.382;2023-04-06T11:52:42;101440.78;;;14.27;61.28
17855;BME280;9053;53.358;6.382;2023-04-06T11:55:13;101433.88;;;14.32;61.43
17855;BME280;9053;53.358;6.382;2023-04-06T11:57:44;101432.09;;;14.33;61.49
17855;BME280;9053;53.358;6.382;2023-04-06T12:00:17;101434.81;;;14.34;61.44
17855;BME280;9053;53.358;6.382;2023-04-06T12:02:48;101431.25;;;14.34;61.39
17855;BME280;9053;53.358;6.382;2023-04-06T12:05:18;101432.16;;;14.34;61.34
17855;BME280;9053;53.358;6.382;2023-04-06T12:07:49;101432.19;;;14.36;61.31
17855;BME280;9053;53.358;6.382;2023-04-06T12:10:19;101425.13;;;14.36;61.31
17855;BME280;9053;53.358;6.382;2023-04-06T12:12:49;101438.34;;;14.35;61.23
17855;BME280;9053;53.358;6.382;2023-04-06T12:15:22;101428.59;;;14.34;61.22
17855;BME280;9053;53.358;6.382;2023-04-06T12:17:53;101431.25;;;14.34;61.16
17855;BME280;9053;53.358;6.382;2023-04-06T12:20:23;101434.75;;;14.33;61.13
17855;BME280;9053;53.358;6.382;2023-04-06T12:22:53;101430.34;;;14.33;61.10
17855;BME280;9053;53.358;6.382;2023-04-06T12:25:23;101432.97;;;14.32;61.02
17855;BME280;9053;53.358;6.382;2023-04-06T12:27:53;101425.84;;;14.29;60.90
17855;BME280;9053;53.358;6.382;2023-04-06T12:30:26;101420.56;;;14.29;60.73
17855;BME280;9053;53.358;6.382;2023-04-06T12:32:56;101428.50;;;14.29;60.90
17855;BME280;9053;53.358;6.382;2023-04-06T12:35:26;101424.84;;;14.25;60.92
17855;BME280;9053;53.358;6.382;2023-04-06T12:37:55;101428.38;;;14.24;60.87
17855;BME280;9053;53.358;6.382;2023-04-06T12:40:29;101426.59;;;14.25;60.73
17855;BME280;9053;53.358;6.382;2023-04-06T12:42:59;101425.72;;;14.24;60.77
17855;BME280;9053;53.358;6.382;2023-04-06T12:45:33;101427.41;;;14.22;60.75
17855;BME280;9053;53.358;6.382;2023-04-06T12:48:03;101419.47;;;14.22;60.68
17855;BME280;9053;53.358;6.382;2023-04-06T12:50:33;101415.06;;;14.21;60.62
17855;BME280;9053;53.358;6.382;2023-04-06T12:53:03;101413.28;;;14.22;60.63
17855;BME280;9053;53.358;6.382;2023-04-06T12:55:33;101422.03;;;14.19;60.65
17855;BME280;9053;53.358;6.382;2023-04-06T12:58:03;101416.75;;;14.19;60.65
17855;BME280;9053;53.358;6.382;2023-04-06T13:00:35;101415.88;;;14.20;60.74
17855;BME280;9053;53.358;6.382;2023-04-06T13:03:05;101411.53;;;14.22;60.70
17855;BME280;9053;53.358;6.382;2023-04-06T13:05:43;101414.25;;;14.24;60.79
17855;BME280;9053;53.358;6.382;2023-04-06T13:08:14;101411.53;;;14.22;61.08
17855;BME280;9053;53.358;6.382;2023-04-06T13:10:46;101406.25;;;14.22;61.13
17855;BME280;9053;53.358;6.382;2023-04-06T13:13:20;101408.03;;;14.23;61.11
17855;BME280;9053;53.358;6.382;2023-04-06T13:15:54;101407.19;;;14.24;60.94
17855;BME280;9053;53.358;6.382;2023-04-06T13:18:24;101405.44;;;14.25;60.95
17855;BME280;9053;53.358;6.382;2023-04-06T13:20:55;101400.16;;;14.25;61.01
17855;BME280;9053;53.358;6.382;2023-04-06T13:23:26;101399.28;;;14.26;60.96
17855;BME280;9053;53.358;6.382;2023-04-06T13:25:59;101392.28;;;14.26;60.90
17855;BME280;9053;53.358;6.382;2023-04-06T13:28:33;101387.06;;;14.29;61.04